createdAt,value
2018-12-06T00:52:48.229Z,24.57
2018-12-06T00:57:49.851Z,30.30
2018-12-06T01:00:19.493Z,21.27
2018-12-06T01:05:17.460Z,23.87
2018-12-06T01:08:51.974Z,22.13
2018-12-06T01:11:20.224Z,21.40
2018-12-06T01:13:51.694Z,26.50
2018-12-06T01:16:22.641Z,20.53
2018-12-06T01:18:50.391Z,24.10
2018-12-06T01:21:21.800Z,19.63
2018-12-06T01:23:55.875Z,18.90
2018-12-06T01:26:27.062Z,20.50
2018-12-06T01:28:57.927Z,20.10
2018-12-06T01:31:29.848Z,19.47
2018-12-06T01:34:01.363Z,19.77
2018-12-06T01:36:37.894Z,17.10
2018-12-06T01:42:09.328Z,18.60
2018-12-06T01:44:47.798Z,19.20
2018-12-06T01:47:21.536Z,17.60
2018-12-06T01:49:55.267Z,18.13
2018-12-06T01:52:28.790Z,18.53
2018-12-06T01:54:57.083Z,18.30
2018-12-06T02:00:24.125Z,19.77
2018-12-06T02:02:52.363Z,17.70
2018-12-06T02:08:19.252Z,16.90
2018-12-06T02:10:47.705Z,15.30
2018-12-06T02:13:33.313Z,19.70
2018-12-06T02:16:01.060Z,16.57
2018-12-06T02:18:32.553Z,19.13
2018-12-06T02:21:03.875Z,19.60
2018-12-06T02:23:31.760Z,16.27
2018-12-06T02:25:59.672Z,17.23
2018-12-06T02:28:27.633Z,18.70
2018-12-06T02:31:02.956Z,15.67
2018-12-06T02:33:36.949Z,18.60
2018-12-06T02:36:10.765Z,18.70
2018-12-06T02:38:38.667Z,16.43
2018-12-06T02:41:06.668Z,21.27
2018-12-06T02:43:34.473Z,17.30
2018-12-06T02:46:02.234Z,16.13
2018-12-06T02:48:35.814Z,18.47
2018-12-06T02:51:06.922Z,17.17
2018-12-06T02:53:36.647Z,18.13
2018-12-06T02:56:10.589Z,17.80
2018-12-06T02:58:38.297Z,18.50
2018-12-06T03:01:06.285Z,17.87
2018-12-06T03:03:34.863Z,17.07
2018-12-06T03:06:03.517Z,24.37
2018-12-06T03:08:31.800Z,16.17
2018-12-06T03:11:02.795Z,18.10
2018-12-06T03:13:40.087Z,18.57
2018-12-06T03:16:08.143Z,15.33
2018-12-06T03:18:35.946Z,14.27
2018-12-06T03:21:03.806Z,18.07
2018-12-06T03:23:31.457Z,20.10
2018-12-06T03:26:00.252Z,17.43
2018-12-06T03:28:27.996Z,18.23
2018-12-06T03:30:55.639Z,20.37
2018-12-06T03:33:23.306Z,18.57
2018-12-06T03:35:51.027Z,20.17
2018-12-06T03:38:18.641Z,20.03
2018-12-06T03:40:46.330Z,18.27
2018-12-06T03:43:14.293Z,18.13
2018-12-06T03:45:42.055Z,19.43
2018-12-06T03:48:09.776Z,17.30
2018-12-06T03:50:48.317Z,18.60
2018-12-06T03:53:16.051Z,18.60
2018-12-06T03:55:43.848Z,15.90
2018-12-06T03:58:11.664Z,22.00
2018-12-06T04:00:39.459Z,16.50
2018-12-06T04:03:07.167Z,18.70
2018-12-06T04:05:35.155Z,16.50
2018-12-06T04:08:02.862Z,18.07
2018-12-06T04:10:30.669Z,19.13
2018-12-06T04:12:58.458Z,17.40
2018-12-06T04:18:11.859Z,20.20
2018-12-06T04:20:39.520Z,19.37
2018-12-06T04:23:07.088Z,16.23
2018-12-06T04:25:34.705Z,22.13
2018-12-06T04:28:02.293Z,18.87
2018-12-06T04:30:29.915Z,20.27
2018-12-06T04:32:57.631Z,18.80
2018-12-06T04:35:25.288Z,16.27
2018-12-06T04:37:52.863Z,18.10
2018-12-06T04:40:20.464Z,20.23
2018-12-06T04:42:48.035Z,20.30
2018-12-06T04:45:15.642Z,20.33
2018-12-06T04:47:43.460Z,23.50
2018-12-06T04:50:11.077Z,20.60
2018-12-06T04:52:44.451Z,21.47
2018-12-06T04:55:12.267Z,21.07
2018-12-06T04:57:39.943Z,23.77
2018-12-06T05:00:07.892Z,23.60
2018-12-06T05:02:35.554Z,22.90
2018-12-06T05:05:03.852Z,19.33
2018-12-06T05:07:31.570Z,19.27
2018-12-06T05:09:59.323Z,17.97
2018-12-06T05:12:26.982Z,17.33
2018-12-06T05:14:54.667Z,19.47
2018-12-06T05:17:22.269Z,19.67
2018-12-06T05:19:51.601Z,22.37
2018-12-06T05:22:19.459Z,19.90
2018-12-06T05:24:47.170Z,21.57
2018-12-06T05:27:14.821Z,19.10
2018-12-06T05:29:42.544Z,19.63
2018-12-06T05:32:10.667Z,18.87
2018-12-06T05:34:41.773Z,20.20
2018-12-06T05:37:09.660Z,19.93
2018-12-06T05:39:37.605Z,19.40
2018-12-06T05:42:05.582Z,20.13
2018-12-06T05:44:33.362Z,18.33
2018-12-06T05:47:01.191Z,19.20
2018-12-06T05:49:30.206Z,19.47
2018-12-06T05:51:58.358Z,18.03
2018-12-06T05:54:26.172Z,18.97
2018-12-06T05:56:53.819Z,16.93
2018-12-06T05:59:21.595Z,17.60
2018-12-06T06:01:49.260Z,18.53
2018-12-06T06:04:20.643Z,23.40
2018-12-06T06:06:48.244Z,18.63
2018-12-06T06:09:15.852Z,18.33
2018-12-06T06:11:43.484Z,21.23
2018-12-06T06:14:11.126Z,19.90
2018-12-06T06:16:38.787Z,18.50
2018-12-06T06:19:06.483Z,18.03
2018-12-06T06:21:34.079Z,18.03
2018-12-06T06:24:01.653Z,18.83
2018-12-06T06:26:29.262Z,18.60
2018-12-06T06:28:56.841Z,19.07
2018-12-06T06:31:24.454Z,21.63
2018-12-06T06:33:52.111Z,20.13
2018-12-06T06:36:19.845Z,17.97
2018-12-06T06:38:47.439Z,17.50
2018-12-06T06:41:15.180Z,22.07
2018-12-06T06:43:42.769Z,18.33
2018-12-06T06:46:14.183Z,16.33
2018-12-06T06:48:41.836Z,17.53
2018-12-06T06:51:09.475Z,18.57
2018-12-06T06:53:40.599Z,18.93
2018-12-06T06:56:08.275Z,20.53
2018-12-06T06:58:35.875Z,20.50
2018-12-06T07:01:03.501Z,19.83
2018-12-06T07:03:31.097Z,18.60
2018-12-06T07:05:58.756Z,18.13
2018-12-06T07:08:26.815Z,18.10
2018-12-06T07:10:54.452Z,15.80
2018-12-06T07:13:25.320Z,17.37
2018-12-06T07:15:56.005Z,21.10
2018-12-06T07:18:23.673Z,19.03
2018-12-06T07:20:51.334Z,20.10
2018-12-06T07:23:26.061Z,18.27
2018-12-06T07:25:53.913Z,17.53
2018-12-06T07:28:27.634Z,20.53
2018-12-06T07:31:02.727Z,20.10
2018-12-06T07:33:36.312Z,19.40
2018-12-06T07:36:07.811Z,26.10
2018-12-06T07:38:35.527Z,20.53
2018-12-06T07:41:11.091Z,16.53
2018-12-06T07:43:38.807Z,19.93
2018-12-06T07:46:12.761Z,17.77
2018-12-06T07:48:46.515Z,21.43
2018-12-06T07:51:17.360Z,18.23
2018-12-06T07:53:56.821Z,18.53
2018-12-06T07:56:34.616Z,23.07
2018-12-06T07:59:09.702Z,20.23
2018-12-06T08:01:43.657Z,16.87
2018-12-06T08:04:11.351Z,21.33
2018-12-06T08:06:39.018Z,19.73
2018-12-06T08:09:08.497Z,21.17
2018-12-06T08:11:36.228Z,20.87
2018-12-06T08:14:03.955Z,19.47
2018-12-06T08:16:31.764Z,17.73
2018-12-06T08:18:59.447Z,17.00
2018-12-06T08:21:27.308Z,17.93
2018-12-06T08:23:55.010Z,21.97
2018-12-06T08:26:22.686Z,19.30
2018-12-06T08:28:50.449Z,19.77
2018-12-06T08:31:18.123Z,18.63
2018-12-06T08:33:45.727Z,21.00
2018-12-06T08:36:13.415Z,21.00
2018-12-06T08:38:41.031Z,20.37
2018-12-06T08:41:08.695Z,20.63
2018-12-06T08:43:36.716Z,23.97
2018-12-06T08:46:04.469Z,19.27
2018-12-06T08:48:32.078Z,22.70
2018-12-06T08:50:59.823Z,21.37
2018-12-06T08:53:27.547Z,23.33
2018-12-06T08:55:55.158Z,18.40
2018-12-06T08:58:22.966Z,18.53
2018-12-06T09:00:50.697Z,16.23
2018-12-06T09:03:18.680Z,17.50
2018-12-06T09:05:46.517Z,18.77
2018-12-06T09:08:14.400Z,19.10
2018-12-06T09:10:42.271Z,26.00
2018-12-06T09:13:10.020Z,20.73
2018-12-06T09:15:37.762Z,21.93
2018-12-06T09:18:05.552Z,18.90
2018-12-06T09:20:33.315Z,21.80
2018-12-06T09:23:01.052Z,22.70
2018-12-06T09:25:28.877Z,21.93
2018-12-06T09:27:56.495Z,20.93
2018-12-06T09:30:24.087Z,23.90
2018-12-06T09:32:51.774Z,19.50
2018-12-06T09:35:19.404Z,25.40
2018-12-06T09:37:47.128Z,20.47
2018-12-06T09:40:14.904Z,21.90
2018-12-06T09:42:42.546Z,21.63
2018-12-06T09:45:10.195Z,19.53
2018-12-06T09:47:38.007Z,22.00
2018-12-06T09:50:05.967Z,20.37
2018-12-06T09:52:33.700Z,24.30
2018-12-06T09:55:01.522Z,21.40
2018-12-06T09:57:29.155Z,21.37
2018-12-06T09:59:56.998Z,18.93
2018-12-06T10:02:24.675Z,25.30
2018-12-06T10:04:52.374Z,21.10
2018-12-06T10:07:20.106Z,19.67
2018-12-06T10:09:47.844Z,20.00
2018-12-06T10:12:15.530Z,16.67
2018-12-06T10:14:43.248Z,22.30
2018-12-06T10:17:11.028Z,16.40
2018-12-06T10:19:38.744Z,16.00
2018-12-06T10:22:06.371Z,20.40
2018-12-06T10:24:34.187Z,15.17
2018-12-06T10:27:01.898Z,16.93
2018-12-06T10:29:29.627Z,17.10
2018-12-06T10:31:57.379Z,14.60
2018-12-06T10:34:25.163Z,13.87
2018-12-06T10:36:52.816Z,15.57
2018-12-06T10:39:20.587Z,14.80
2018-12-06T10:41:48.259Z,13.53
2018-12-06T10:44:26.382Z,16.20
2018-12-06T10:46:54.207Z,16.13
2018-12-06T10:49:21.948Z,16.10
2018-12-06T10:51:49.755Z,13.97
2018-12-06T10:54:17.464Z,16.37
2018-12-06T10:56:45.160Z,14.00
2018-12-06T10:59:12.896Z,19.03
2018-12-06T11:01:46.284Z,11.90
2018-12-06T11:04:13.988Z,10.50
2018-12-06T11:06:41.647Z,8.80
2018-12-06T11:09:09.355Z,11.93
2018-12-06T11:11:36.983Z,7.97
2018-12-06T11:14:04.744Z,11.47
2018-12-06T11:16:32.464Z,8.53
2018-12-06T11:19:00.220Z,14.30
2018-12-06T11:21:27.885Z,8.67
2018-12-06T11:23:56.883Z,10.17
2018-12-06T11:26:24.744Z,9.10
2018-12-06T11:28:52.435Z,8.53
2018-12-06T11:31:20.305Z,9.87
2018-12-06T11:33:48.353Z,8.30
2018-12-06T11:36:16.044Z,8.63
2018-12-06T11:38:43.700Z,7.80
2018-12-06T11:41:11.371Z,8.20
2018-12-06T11:43:39.175Z,7.10
2018-12-06T11:46:06.957Z,8.60
2018-12-06T11:48:34.691Z,7.93
2018-12-06T11:51:02.462Z,7.47
2018-12-06T11:53:30.526Z,6.60
2018-12-06T11:55:58.303Z,6.90
2018-12-06T11:58:26.049Z,7.33
2018-12-06T12:00:53.831Z,8.03
2018-12-06T12:03:21.504Z,7.77
2018-12-06T12:05:49.205Z,7.10
2018-12-06T12:08:16.907Z,6.87
2018-12-06T12:10:44.662Z,7.07
2018-12-06T12:13:12.659Z,6.37
2018-12-06T12:15:40.466Z,7.77
2018-12-06T12:18:10.278Z,8.20
2018-12-06T12:20:38.025Z,9.20
2018-12-06T12:23:05.825Z,6.00
2018-12-06T12:25:33.857Z,5.60
2018-12-06T12:28:01.708Z,7.30
2018-12-06T12:30:29.624Z,7.73
2018-12-06T12:32:57.331Z,6.70
2018-12-06T12:35:25.008Z,4.07
2018-12-06T12:37:52.689Z,6.00
2018-12-06T12:40:20.281Z,3.93
2018-12-06T12:42:50.430Z,4.20
2018-12-06T12:45:18.167Z,3.57
2018-12-06T12:47:46.030Z,4.73
2018-12-06T12:50:13.835Z,4.63
2018-12-06T12:52:41.499Z,4.10
2018-12-06T12:55:09.407Z,4.90
2018-12-06T12:57:37.131Z,3.80
2018-12-06T13:00:05.790Z,4.30
2018-12-06T13:02:33.457Z,4.00
2018-12-06T13:05:01.223Z,5.73
2018-12-06T13:07:28.887Z,4.87
2018-12-06T13:09:56.507Z,3.97
2018-12-06T13:12:24.236Z,3.23
2018-12-06T13:14:52.049Z,6.33
2018-12-06T13:17:19.868Z,12.83
2018-12-06T13:19:47.827Z,5.77
2018-12-06T13:22:17.052Z,6.77
2018-12-06T13:24:45.028Z,6.87
2018-12-06T13:27:13.247Z,12.17
2018-12-06T13:29:41.204Z,16.57
2018-12-06T13:32:14.067Z,11.13
2018-12-06T13:34:42.276Z,5.63
2018-12-06T13:37:10.473Z,4.20
2018-12-06T13:39:38.482Z,2.20
2018-12-06T13:42:06.971Z,4.07
2018-12-06T13:44:35.344Z,5.23
2018-12-06T13:47:03.763Z,4.63
2018-12-06T13:49:35.878Z,5.50
2018-12-06T13:52:06.958Z,2.57
2018-12-06T13:54:37.844Z,3.17
2018-12-06T13:57:05.862Z,4.47
2018-12-06T13:59:33.867Z,4.77
2018-12-06T14:02:01.857Z,4.27
2018-12-06T14:04:29.888Z,2.27
2018-12-06T14:06:58.084Z,2.13
2018-12-06T14:09:26.306Z,2.63
2018-12-06T14:11:54.393Z,2.60
2018-12-06T14:14:22.124Z,2.40
2018-12-06T14:16:50.420Z,3.40
2018-12-06T14:19:18.487Z,3.60
2018-12-06T14:21:46.661Z,5.47
2018-12-06T14:24:16.931Z,6.10
2018-12-06T14:26:44.833Z,4.80
2018-12-06T14:29:12.920Z,4.40
2018-12-06T14:31:41.209Z,3.23
2018-12-06T14:34:08.862Z,4.90
2018-12-06T14:36:37.789Z,4.57
2018-12-06T14:39:08.107Z,2.50
2018-12-06T14:41:35.872Z,4.83
2018-12-06T14:44:03.716Z,6.10
2018-12-06T14:46:31.460Z,3.93
2018-12-06T14:48:59.223Z,5.37
2018-12-06T14:51:26.935Z,3.70
2018-12-06T14:53:54.713Z,4.23
2018-12-06T14:56:22.536Z,5.40
2018-12-06T14:58:50.513Z,4.70
2018-12-06T15:01:18.389Z,4.53
2018-12-06T15:03:46.345Z,4.90
2018-12-06T15:06:20.632Z,3.87
2018-12-06T15:09:05.861Z,5.77
2018-12-06T15:11:46.641Z,4.10
2018-12-06T15:14:25.865Z,4.90
2018-12-06T15:16:59.415Z,3.03
2018-12-06T15:19:27.714Z,6.00
2018-12-06T15:21:55.945Z,6.63
2018-12-06T15:24:23.863Z,6.03
2018-12-06T15:26:51.724Z,8.63
2018-12-06T15:29:20.010Z,6.27
2018-12-06T15:34:52.903Z,5.63
2018-12-06T15:37:21.109Z,3.70
2018-12-06T15:39:56.103Z,7.63
2018-12-06T15:42:24.263Z,3.40
2018-12-06T15:44:52.296Z,3.40
2018-12-06T15:47:20.203Z,5.10
2018-12-06T15:49:48.077Z,5.13
2018-12-06T15:52:15.849Z,3.47
2018-12-06T15:54:43.582Z,2.70
2018-12-06T15:57:13.300Z,4.33
2018-12-06T16:00:01.045Z,3.23
2018-12-06T16:08:47.494Z,3.20
2018-12-06T16:17:26.069Z,2.23
2018-12-06T16:23:03.790Z,3.13
2018-12-06T16:25:45.663Z,2.90
2018-12-06T16:28:26.992Z,4.70
2018-12-06T16:31:05.169Z,2.73
2018-12-06T16:36:35.802Z,3.87
2018-12-06T16:39:16.461Z,3.03
2018-12-06T16:41:50.957Z,3.13
2018-12-06T16:47:35.520Z,3.80
2018-12-06T16:50:24.517Z,4.67
2018-12-06T16:53:01.757Z,4.23
2018-12-06T16:55:35.484Z,4.73
2018-12-06T16:58:15.569Z,2.70
2018-12-06T17:00:51.401Z,3.13
2018-12-06T17:03:35.244Z,4.17
2018-12-06T17:06:15.431Z,3.57
2018-12-06T17:08:59.344Z,4.90
2018-12-06T17:14:36.764Z,7.93
2018-12-06T17:30:08.387Z,4.67
2018-12-06T17:32:41.584Z,4.30
2018-12-06T17:35:23.490Z,8.17
2018-12-06T17:38:03.175Z,5.70
2018-12-06T17:40:39.878Z,5.47
2018-12-06T17:45:54.607Z,5.97
2018-12-06T17:48:28.020Z,4.07
2018-12-06T17:51:03.067Z,4.43
2018-12-06T17:56:22.113Z,5.43
2018-12-06T18:04:19.954Z,7.37
2018-12-06T18:07:00.232Z,6.83
2018-12-06T18:09:35.237Z,5.10
2018-12-06T18:15:07.731Z,4.90
2018-12-06T18:17:42.469Z,6.07
2018-12-06T18:20:16.692Z,9.80
2018-12-06T18:22:50.472Z,5.40
2018-12-06T18:25:24.521Z,5.60
2018-12-06T18:27:59.611Z,5.87
2018-12-06T18:33:20.187Z,6.60
2018-12-06T18:35:54.484Z,6.63
2018-12-06T18:38:28.911Z,6.50
2018-12-06T18:41:11.607Z,6.63
2018-12-06T18:44:00.297Z,7.10
2018-12-06T18:46:44.114Z,6.60
2018-12-06T18:49:25.121Z,7.93
2018-12-06T18:51:58.400Z,6.70
2018-12-06T18:54:38.611Z,7.43
2018-12-06T18:57:13.053Z,6.83
2018-12-06T18:59:48.259Z,5.93
2018-12-06T19:02:28.180Z,7.80
2018-12-06T19:10:38.449Z,6.10
2018-12-06T19:13:13.867Z,6.80
2018-12-06T19:15:56.961Z,6.23
2018-12-06T19:18:31.336Z,6.33
2018-12-06T19:21:17.380Z,8.47
2018-12-06T19:26:56.666Z,5.87
2018-12-06T19:29:30.086Z,7.53
2018-12-06T19:32:09.686Z,8.30
2018-12-06T19:34:49.133Z,4.37
2018-12-06T19:40:10.129Z,5.40
2018-12-06T19:42:45.305Z,6.03
2018-12-06T19:45:18.682Z,6.13
2018-12-06T19:47:59.798Z,7.57
2018-12-06T19:50:39.903Z,9.83
2018-12-06T19:56:05.769Z,6.03
2018-12-06T19:58:41.536Z,6.13
2018-12-06T20:01:18.330Z,6.47
2018-12-06T20:03:56.518Z,8.10
2018-12-06T20:06:30.210Z,8.20
2018-12-06T20:11:42.564Z,6.03
2018-12-06T20:14:15.704Z,7.73
2018-12-06T20:16:50.744Z,5.53
2018-12-06T20:22:08.309Z,5.83
2018-12-06T20:24:42.215Z,5.60
2018-12-06T20:27:15.967Z,7.10
2018-12-06T20:29:50.575Z,6.43
2018-12-06T20:32:26.488Z,5.20
2018-12-06T20:35:04.907Z,5.20
2018-12-06T20:37:43.540Z,6.20
2018-12-06T20:40:18.723Z,6.10
2018-12-06T20:42:57.121Z,5.30
2018-12-06T20:45:37.683Z,5.63
2018-12-06T20:48:07.060Z,6.67
2018-12-06T20:50:49.204Z,5.73
2018-12-06T20:53:15.498Z,5.63
2018-12-06T20:55:52.849Z,7.23
2018-12-06T20:58:28.367Z,7.70
2018-12-06T21:01:09.680Z,7.53
2018-12-06T21:03:43.405Z,5.93
2018-12-06T21:06:27.122Z,5.50
2018-12-06T21:08:58.128Z,7.50
2018-12-06T21:11:32.339Z,4.73
2018-12-06T21:14:12.924Z,7.10
2018-12-06T21:16:46.770Z,5.40
2018-12-06T21:19:20.388Z,3.93
2018-12-06T21:21:59.109Z,3.63
2018-12-06T21:24:33.828Z,3.10
2018-12-06T21:27:03.152Z,4.93
2018-12-06T21:29:34.063Z,5.20
2018-12-06T21:32:07.285Z,3.30
2018-12-06T21:34:38.905Z,3.00
2018-12-06T21:37:22.827Z,2.90
2018-12-06T21:40:05.807Z,4.13
2018-12-06T21:50:48.515Z,4.50
2018-12-06T21:53:34.639Z,3.87
2018-12-06T21:56:07.084Z,3.10
2018-12-06T22:04:04.100Z,4.07
2018-12-06T22:09:27.924Z,2.50
2018-12-06T22:12:13.927Z,3.17
2018-12-06T22:14:46.388Z,4.73
2018-12-06T22:17:26.524Z,3.20
2018-12-06T22:20:01.592Z,3.27
2018-12-06T22:22:48.295Z,4.73
2018-12-06T22:25:24.508Z,3.47
2018-12-06T22:28:01.102Z,3.00
2018-12-06T22:30:38.104Z,3.70
2018-12-06T22:33:14.727Z,6.67
2018-12-06T22:36:04.816Z,4.17
2018-12-06T22:38:47.212Z,3.50
2018-12-06T22:47:04.724Z,3.87
2018-12-06T22:49:39.243Z,3.10
2018-12-06T22:52:17.157Z,2.50
2018-12-06T22:54:51.202Z,2.93
2018-12-06T22:57:18.928Z,3.03
2018-12-06T22:59:50.309Z,5.00
2018-12-06T23:02:22.320Z,2.60
2018-12-06T23:05:02.600Z,2.47
2018-12-06T23:07:33.560Z,2.50
2018-12-06T23:10:10.899Z,2.00
2018-12-06T23:12:46.863Z,2.30
2018-12-06T23:15:20.435Z,2.40
2018-12-06T23:17:53.873Z,2.40
2018-12-06T23:20:28.128Z,3.07
2018-12-06T23:23:01.757Z,2.00
2018-12-06T23:25:32.808Z,3.60
2018-12-06T23:28:06.889Z,2.17
2018-12-06T23:30:40.635Z,1.70
2018-12-06T23:33:16.529Z,5.03
2018-12-06T23:35:50.529Z,2.70
2018-12-06T23:38:25.265Z,3.13
2018-12-06T23:40:59.015Z,3.43
2018-12-06T23:43:38.866Z,2.50
2018-12-06T23:46:23.649Z,2.57
2018-12-06T23:48:58.905Z,1.70
2018-12-06T23:51:36.256Z,1.90
2018-12-06T23:54:16.420Z,2.57
2018-12-06T23:57:04.545Z,2.20
2018-12-06T23:59:44.798Z,2.83
